Time;durP1;ratioP1;P1;durP2;ratioP2;P2;SDS_P1;SDS_P2;PMS_P1;PMS_P2;Temp;Humidity;BMP_temperature;BMP_pressure;BME280_temperature;BME280_humidity;BME280_pressure;Samples;Min_cycle;Max_cycle;Signal;HPM_P1;HPM_P2
2023/09/06 00:02:37;;;;;;;5.48;3.32;;;;;;;17.96;100.00;101457.25;4912484;59;1150489;-75
2023/09/06 00:07:45;;;;;;;4.13;3.73;;;;;;;17.97;100.00;101452.73;4836369;59;1140879;-76
2023/09/06 00:12:50;;;;;;;5.78;2.87;;;;;;;17.84;100.00;101449.88;4955483;58;1141076;-76
2023/09/06 00:17:56;;;;;;;3.90;3.42;;;;;;;17.76;100.00;101459.09;4971176;58;1140995;-75
2023/09/06 00:23:06;;;;;;;4.37;3.98;;;;;;;17.65;100.00;101456.58;4970891;58;1141098;-74
2023/09/06 00:28:12;;;;;;;4.10;3.70;;;;;;;17.61;100.00;101451.61;4888739;58;1140979;-75
2023/09/06 00:33:18;;;;;;;6.12;3.58;;;;;;;17.56;100.00;101444.03;4907929;57;1141041;-75
2023/09/06 00:38:24;;;;;;;4.58;3.95;;;;;;;17.58;100.00;101430.84;4888497;56;1140720;-74
2023/09/06 00:43:30;;;;;;;5.10;4.20;;;;;;;17.61;100.00;101424.38;4888153;58;1140792;-75
2023/09/06 00:48:37;;;;;;;6.35;3.80;;;;;;;17.62;100.00;101426.55;4906975;57;1140843;-76
2023/09/06 00:53:42;;;;;;;9.20;4.42;;;;;;;17.51;100.00;101428.41;4890893;57;1141217;-76
2023/09/06 00:58:48;;;;;;;6.10;3.87;;;;;;;17.47;100.00;101429.66;4820790;59;1141317;-74
2023/09/06 01:03:54;;;;;;;8.53;3.37;;;;;;;17.35;100.00;101435.30;4940227;57;1140799;-76
2023/09/06 01:09:02;;;;;;;6.20;3.87;;;;;;;17.21;100.00;101431.22;4806106;59;1140648;-76
2023/09/06 01:14:08;;;;;;;4.00;3.42;;;;;;;17.08;100.00;101438.17;4707282;61;1140542;-74
2023/09/06 01:19:24;;;;;;;4.57;3.80;;;;;;;17.03;100.00;101435.55;4708675;60;1140903;-74
2023/09/06 01:24:29;;;;;;;7.47;3.87;;;;;;;16.97;100.00;101430.74;4638714;60;1140953;-76
2023/09/06 01:29:36;;;;;;;8.43;4.20;;;;;;;16.84;100.00;101433.19;4666817;60;1140750;-74
2023/09/06 01:34:41;;;;;;;4.03;3.30;;;;;;;16.76;100.00;101429.52;4788304;59;1140841;-75
2023/09/06 01:39:47;;;;;;;6.65;3.75;;;;;;;16.79;100.00;101426.09;4785741;59;1140799;-76
2023/09/06 01:44:53;;;;;;;7.53;4.10;;;;;;;16.87;100.00;101435.59;4843451;59;1140913;-74
2023/09/06 01:49:59;;;;;;;6.10;3.87;;;;;;;16.88;100.00;101431.09;4852233;58;1141113;-76
2023/09/06 01:55:05;;;;;;;5.30;3.30;;;;;;;16.82;100.00;101438.31;4956676;58;1140997;-75
2023/09/06 02:00:27;;;;;;;5.27;3.13;;;;;;;16.70;100.00;101442.08;4866731;59;1140857;-76
2023/09/06 02:05:33;;;;;;;8.87;3.47;;;;;;;16.65;100.00;101440.33;4846328;59;1140764;-74
2023/09/06 02:10:40;;;;;;;5.42;3.42;;;;;;;16.61;100.00;101433.52;4784727;59;1148690;-76
2023/09/06 02:15:46;;;;;;;4.67;3.40;;;;;;;16.55;100.00;101433.56;4857273;58;1140959;-76
2023/09/06 02:20:52;;;;;;;7.53;4.47;;;;;;;16.52;100.00;101436.01;4786540;59;1140687;-75
2023/09/06 02:25:57;;;;;;;5.80;3.95;;;;;;;16.52;100.00;101433.83;4858662;59;1140737;-76
2023/09/06 02:31:04;;;;;;;7.63;3.97;;;;;;;16.46;100.00;101437.91;4816301;60;1140982;-73
2023/09/06 02:36:09;;;;;;;6.20;3.30;;;;;;;16.43;100.00;101445.33;4845926;59;1142846;-75
2023/09/06 02:41:15;;;;;;;4.67;3.20;;;;;;;16.39;100.00;101446.56;4898515;59;1140973;-74
2023/09/06 02:46:21;;;;;;;7.57;3.40;;;;;;;16.41;100.00;101452.62;4947061;57;1140832;-76
2023/09/06 02:51:29;;;;;;;8.70;4.07;;;;;;;16.44;100.00;101453.70;4943336;58;1140862;-75
2023/09/06 02:56:37;;;;;;;4.33;3.90;;;;;;;16.43;100.00;101449.33;4956972;58;1140747;-75
2023/09/06 03:01:44;;;;;;;4.87;4.37;;;;;;;16.33;100.00;101459.98;4937149;58;1140834;-75
2023/09/06 03:06:51;;;;;;;5.13;3.43;;;;;;;16.25;100.00;101455.78;4937375;57;1140970;-74
2023/09/06 03:11:57;;;;;;;8.60;3.47;;;;;;;16.23;100.00;101455.55;4956866;58;1140621;-74
2023/09/06 03:17:08;;;;;;;6.80;4.47;;;;;;;16.23;100.00;101457.73;4937390;58;1140759;-74
2023/09/06 03:22:10;;;;;;;10.13;4.30;;;;;;;16.20;100.00;101466.00;4937485;58;1147005;-75
2023/09/06 03:27:16;;;;;;;6.53;4.53;;;;;;;16.05;100.00;101464.16;4957036;58;1143286;-74
2023/09/06 03:32:22;;;;;;;16.80;4.37;;;;;;;15.97;100.00;101462.64;4937556;58;1141154;-76
2023/09/06 03:37:30;;;;;;;6.07;4.10;;;;;;;15.91;100.00;101465.83;4937236;58;1143179;-75
2023/09/06 03:42:36;;;;;;;9.03;4.03;;;;;;;15.89;100.00;101465.10;4957317;58;1140757;-76
2023/09/06 03:47:42;;;;;;;9.20;5.73;;;;;;;15.91;100.00;101464.48;4941471;58;1140810;-76
2023/09/06 03:52:48;;;;;;;12.63;7.20;;;;;;;15.91;100.00;101458.30;4900174;58;1140939;-74
2023/09/06 03:57:54;;;;;;;17.07;6.20;;;;;;;15.82;100.00;101453.28;4988992;58;1143316;-76
2023/09/06 04:03:00;;;;;;;13.62;6.40;;;;;;;15.72;100.00;101465.22;4969840;57;1143176;-74
2023/09/06 04:08:11;;;;;;;19.50;6.63;;;;;;;15.62;100.00;101462.10;4970041;58;1143213;-75
2023/09/06 04:13:15;;;;;;;21.80;6.37;;;;;;;15.61;100.00;101457.25;4988639;58;1142798;-76
2023/09/06 04:18:21;;;;;;;18.17;6.63;;;;;;;15.66;100.00;101468.39;4876024;59;1142842;-75
2023/09/06 04:23:27;;;;;;;13.60;5.90;;;;;;;15.64;100.00;101476.16;4958649;58;1142845;-75
2023/09/06 04:28:34;;;;;;;22.30;7.53;;;;;;;15.57;100.00;101470.51;4985924;57;1142921;-75
2023/09/06 04:33:42;;;;;;;19.25;7.70;;;;;;;15.46;100.00;101475.34;4979425;58;1142897;-77
2023/09/06 04:56:31;;;;;;;10.80;5.60;;;;;;;15.46;100.00;101468.68;5099964;56;47021;-75
2023/09/06 05:01:37;;;;;;;19.63;5.50;;;;;;;15.32;100.00;101471.64;5026110;56;1138988;-74
2023/09/06 05:06:43;;;;;;;15.27;7.00;;;;;;;15.33;100.00;101473.34;4954740;57;1143011;-75
2023/09/06 05:11:49;;;;;;;11.90;6.33;;;;;;;15.34;100.00;101477.70;5084596;56;1142905;-74
2023/09/06 05:16:56;;;;;;;18.20;7.10;;;;;;;15.36;100.00;101478.91;5010699;57;1143083;-77
2023/09/06 05:22:02;;;;;;;18.87;7.87;;;;;;;15.39;100.00;101478.66;5011618;57;1142979;-77
2023/09/06 05:27:10;;;;;;;17.80;6.93;;;;;;;15.42;100.00;101483.26;5050785;57;1143027;-77
2023/09/06 05:32:18;;;;;;;29.33;7.53;;;;;;;15.56;100.00;101493.30;4976253;57;1143130;-75
2023/09/06 05:37:25;;;;;;;10.07;6.23;;;;;;;15.74;100.00;101496.59;5014211;57;1142981;-76
2023/09/06 05:42:31;;;;;;;13.50;6.55;;;;;;;15.95;100.00;101495.77;5044236;57;1143465;-76
2023/09/06 05:47:38;;;;;;;9.18;6.60;;;;;;;16.19;100.00;101491.84;5039788;57;1142897;-76
2023/09/06 05:52:46;;;;;;;12.20;6.40;;;;;;;16.51;100.00;101506.91;4928328;57;1141083;-77
2023/09/06 05:57:52;;;;;;;10.97;6.20;;;;;;;16.87;100.00;101501.55;4999106;57;1143112;-76
2023/09/06 06:03:01;;;;;;;14.27;6.37;;;;;;;17.22;100.00;101505.09;4997445;57;1143136;-76
2023/09/06 06:08:07;;;;;;;7.77;6.30;;;;;;;17.50;100.00;101509.62;4977954;57;1142975;-77
2023/09/06 06:13:13;;;;;;;12.85;7.55;;;;;;;17.82;100.00;101514.73;4948164;57;1141170;-77
2023/09/06 06:18:18;;;;;;;12.97;6.73;;;;;;;18.03;100.00;101511.03;4979697;57;1142982;-75
2023/09/06 06:23:24;;;;;;;11.37;6.67;;;;;;;18.33;100.00;101513.55;4877229;58;1143107;-74
2023/09/06 06:28:29;;;;;;;13.27;6.93;;;;;;;18.46;100.00;101523.94;4947453;57;1143047;-74
2023/09/06 06:33:35;;;;;;;28.55;7.60;;;;;;;18.57;100.00;101518.39;4952731;58;1143248;-75
2023/09/06 06:38:41;;;;;;;11.95;7.17;;;;;;;18.66;100.00;101517.53;4933025;58;1143088;-74
2023/09/06 06:43:49;;;;;;;10.60;6.43;;;;;;;18.78;100.00;101520.40;4930829;57;1143010;-75
2023/09/06 06:48:56;;;;;;;7.87;6.50;;;;;;;18.91;100.00;101512.86;4975557;57;1143001;-73
2023/09/06 06:54:04;;;;;;;11.57;6.58;;;;;;;19.12;100.00;101521.97;4979083;57;1140902;-75
2023/09/06 06:59:10;;;;;;;9.75;6.25;;;;;;;19.19;100.00;101517.70;4947036;57;1143146;-77
2023/09/06 07:04:16;;;;;;;9.75;6.45;;;;;;;19.38;100.00;101521.27;4923385;56;1140831;-74
2023/09/06 07:09:21;;;;;;;12.58;6.62;;;;;;;19.58;100.00;101522.32;4961404;57;1140905;-76
2023/09/06 07:14:27;;;;;;;15.53;6.62;;;;;;;19.73;100.00;101523.97;5027798;57;1143044;-74
2023/09/06 07:19:33;;;;;;;14.43;6.08;;;;;;;19.99;100.00;101528.92;5035056;57;1142753;-75
2023/09/06 07:24:39;;;;;;;14.03;6.05;;;;;;;20.20;100.00;101531.24;5031111;57;1143105;-75
2023/09/06 07:29:45;;;;;;;13.68;5.67;;;;;;;20.56;100.00;101533.87;5001122;57;1143184;-76
2023/09/06 07:34:51;;;;;;;6.87;5.65;;;;;;;20.94;100.00;101540.59;5035556;57;1143202;-73
2023/09/06 07:40:00;;;;;;;11.35;6.15;;;;;;;21.13;100.00;101540.34;5009863;57;1140890;-76
2023/09/06 07:45:07;;;;;;;18.30;5.28;;;;;;;21.43;100.00;101536.77;4997763;57;1143190;-75
2023/09/06 07:50:13;;;;;;;15.28;5.70;;;;;;;21.71;100.00;101540.84;4880452;58;1143239;-74
2023/09/06 07:55:18;;;;;;;13.45;6.50;;;;;;;21.85;100.00;101540.19;4974260;57;1143302;-74
2023/09/06 08:00:26;;;;;;;13.48;5.08;;;;;;;21.86;100.00;101546.41;4973357;57;1143057;-77
2023/09/06 08:05:38;;;;;;;10.20;5.33;;;;;;;21.86;100.00;101548.60;4940909;57;1143117;-76
2023/09/06 08:10:44;;;;;;;7.08;4.95;;;;;;;21.92;100.00;101541.21;4978206;57;1143142;-77
2023/09/06 08:15:52;;;;;;;10.88;5.20;;;;;;;22.17;100.00;101539.38;5005544;56;1140871;-75
2023/09/06 08:20:57;;;;;;;8.78;5.20;;;;;;;22.68;100.00;101536.76;4875987;56;1143150;-74
2023/09/06 08:26:04;;;;;;;10.03;4.80;;;;;;;23.01;100.00;101537.52;4961896;56;1141024;-74
2023/09/06 08:31:09;;;;;;;7.70;4.50;;;;;;;23.13;97.72;101538.80;4993436;56;1143459;-74
2023/09/06 08:36:15;;;;;;;7.37;4.75;;;;;;;23.35;95.74;101546.63;4969736;56;1139084;-76
2023/09/06 08:41:22;;;;;;;6.47;4.20;;;;;;;23.40;97.21;101542.03;4943062;56;1138957;-75
2023/09/06 08:46:37;;;;;;;5.08;4.58;;;;;;;23.56;95.32;101553.27;4913550;58;1138992;-74
2023/09/06 08:51:45;;;;;;;8.80;4.30;;;;;;;23.77;95.29;101559.72;4941558;57;1138881;-75
2023/09/06 08:56:54;;;;;;;5.08;4.58;;;;;;;24.05;94.81;101562.70;4945599;56;1138792;-76
2023/09/06 09:02:01;;;;;;;8.30;4.08;;;;;;;24.36;94.38;101563.98;5000154;57;1139044;-76
2023/09/06 09:07:08;;;;;;;8.45;4.60;;;;;;;24.42;92.81;101573.23;4987708;56;1138960;-74
2023/09/06 09:12:14;;;;;;;5.12;4.37;;;;;;;24.27;90.86;101576.42;4973165;56;1138757;-76
2023/09/06 09:17:22;;;;;;;11.03;4.47;;;;;;;24.34;90.79;101573.30;4876810;57;1139135;-75
2023/09/06 09:22:37;;;;;;;6.40;3.62;;;;;;;24.30;90.35;101570.11;5039459;56;1255554;-75
2023/09/06 09:27:56;;;;;;;7.85;3.83;;;;;;;24.50;90.05;101574.49;4916042;57;1139068;-76
2023/09/06 09:33:03;;;;;;;6.28;4.08;;;;;;;24.72;88.81;101572.24;5035721;56;1138746;-75
2023/09/06 09:38:13;;;;;;;6.50;4.03;;;;;;;24.84;87.21;101569.91;5007568;56;1138954;-75
2023/09/06 09:43:19;;;;;;;3.72;3.37;;;;;;;24.94;87.29;101576.41;5045707;56;1138833;-75
2023/09/06 09:48:29;;;;;;;3.50;3.10;;;;;;;25.11;82.57;101585.50;5025471;56;1139044;-77
2023/09/06 09:53:37;;;;;;;6.03;3.27;;;;;;;25.14;83.65;101587.00;5031282;56;1139264;-75
2023/09/06 09:58:42;;;;;;;3.72;3.42;;;;;;;25.21;80.32;101590.61;4982020;57;1138753;-74
2023/09/06 10:03:50;;;;;;;8.05;3.62;;;;;;;25.30;82.46;101584.59;5045188;56;1139102;-79
2023/09/06 10:09:07;;;;;;;10.43;3.75;;;;;;;25.41;79.96;101584.94;4963716;57;1138896;-75
2023/09/06 10:14:12;;;;;;;3.70;3.35;;;;;;;25.48;80.39;101585.87;5045405;56;1141141;-74
2023/09/06 10:19:18;;;;;;;9.25;3.87;;;;;;;25.74;80.08;101579.09;4982759;57;1138853;-76
2023/09/06 10:24:24;;;;;;;4.78;3.22;;;;;;;25.82;79.33;101574.88;5045238;56;1138838;-74
2023/09/06 10:29:32;;;;;;;7.65;3.27;;;;;;;25.84;77.24;101575.53;4963922;57;1139318;-74
2023/09/06 10:34:44;;;;;;;10.68;4.47;;;;;;;25.88;79.45;101578.19;5065533;56;1138871;-75
2023/09/06 10:39:56;;;;;;;;;;;;;;;26.02;77.99;101579.15;5048699;56;1140974;-75
2023/09/06 10:45:06;;;;;;;4.37;3.45;;;;;;;26.22;77.83;101570.17;4987247;56;976307;-75
2023/09/06 10:50:19;;;;;;;4.60;3.53;;;;;;;26.29;78.17;101570.23;4901824;57;1136750;-75
2023/09/06 10:55:27;;;;;;;10.68;3.80;;;;;;;26.40;76.32;101571.59;5033978;57;1139126;-74
2023/09/06 11:00:41;;;;;;;4.98;3.52;;;;;;;26.64;75.61;101568.41;4940742;57;1140823;-75
2023/09/06 11:05:52;;;;;;;4.73;3.43;;;;;;;26.70;76.64;101566.27;4998561;57;1138909;-74
2023/09/06 11:11:10;;;;;;;3.27;3.08;;;;;;;26.82;78.06;101564.67;5065011;56;1138638;-74
2023/09/06 11:16:17;;;;;;;9.25;5.33;;;;;;;26.97;77.95;101559.14;5013332;56;1138677;-74
2023/09/06 11:21:23;;;;;;;8.05;3.40;;;;;;;27.21;76.46;101552.34;5027102;56;1138933;-75
2023/09/06 11:26:37;;;;;;;5.03;3.25;;;;;;;27.51;76.20;101551.48;4895349;58;1138998;-76
2023/09/06 11:31:45;;;;;;;12.07;3.08;;;;;;;27.73;75.96;101550.33;4893072;58;1138859;-74
2023/09/06 11:36:51;;;;;;;5.80;3.80;;;;;;;27.84;73.52;101552.95;4955801;57;1140865;-75
2023/09/06 11:41:58;;;;;;;8.68;3.87;;;;;;;27.75;73.48;101553.69;4950519;57;1138584;-75
2023/09/06 11:47:06;;;;;;;3.10;2.90;;;;;;;27.76;73.81;101547.73;5058416;56;1138662;-75
2023/09/06 11:52:19;;;;;;;4.17;3.23;;;;;;;27.73;72.21;101550.85;5041324;56;1138832;-75
2023/09/06 11:57:30;;;;;;;4.62;3.35;;;;;;;27.92;72.02;101541.37;4957527;57;1139001;-75
2023/09/06 12:02:36;;;;;;;4.05;3.55;;;;;;;28.13;71.73;101536.75;4899470;57;1138848;-75
2023/09/06 12:07:43;;;;;;;3.83;3.40;;;;;;;28.26;71.70;101540.33;5019609;56;1139185;-75
2023/09/06 12:12:51;;;;;;;3.47;3.17;;;;;;;28.50;71.03;101536.65;4994944;57;1139194;-75
2023/09/06 12:17:56;;;;;;;3.95;3.50;;;;;;;28.60;69.72;101532.95;4965004;57;1138795;-75
2023/09/06 12:23:05;;;;;;;4.00;2.83;;;;;;;28.75;69.31;101528.63;4852960;57;1138727;-75
2023/09/06 12:28:11;;;;;;;4.43;3.17;;;;;;;28.86;66.83;101526.13;4900851;57;1139012;-75
2023/09/06 12:33:18;;;;;;;8.08;3.30;;;;;;;28.76;67.94;101529.77;5015859;57;1138717;-75
2023/09/06 12:38:23;;;;;;;3.90;3.60;;;;;;;28.64;67.37;101517.35;5028218;56;1138950;-75
2023/09/06 12:43:34;;;;;;;3.83;3.30;;;;;;;28.66;68.46;101516.62;4897149;57;1138962;-75
2023/09/06 12:48:37;;;;;;;4.72;2.85;;;;;;;28.73;68.64;101512.50;5000214;57;1138962;-75
2023/09/06 12:53:42;;;;;;;3.85;3.42;;;;;;;28.80;70.49;101508.44;5025839;56;1138950;-75
2023/09/06 12:58:48;;;;;;;6.65;3.25;;;;;;;28.88;69.06;101513.10;4974685;57;1138931;-75
2023/09/06 13:03:53;;;;;;;3.87;2.90;;;;;;;29.01;69.34;101505.43;5015553;57;1138802;-75
2023/09/06 13:08:59;;;;;;;3.87;3.40;;;;;;;29.05;68.38;101502.56;4941346;58;1138920;-75
2023/09/06 13:14:06;;;;;;;11.68;3.60;;;;;;;29.11;67.75;101489.97;4987929;56;1139301;-75
2023/09/06 13:19:12;;;;;;;11.40;3.47;;;;;;;29.15;67.95;101488.48;5026149;56;1141029;-74
2023/09/06 13:24:17;;;;;;;3.33;3.02;;;;;;;29.21;67.98;101484.87;5032358;56;1140934;-75
2023/09/06 13:29:23;;;;;;;5.62;3.17;;;;;;;29.18;67.11;101473.08;4944437;58;1138826;-75
2023/09/06 13:34:29;;;;;;;6.85;3.20;;;;;;;29.28;67.89;101464.72;4976372;57;1138676;-75
2023/09/06 13:39:34;;;;;;;6.50;2.77;;;;;;;29.37;67.83;101470.73;4972508;56;1138949;-75
2023/09/06 13:44:40;;;;;;;3.22;3.00;;;;;;;29.39;66.00;101467.30;4945952;57;1138900;-74
2023/09/06 13:49:45;;;;;;;2.80;2.63;;;;;;;29.52;66.06;101469.09;4931034;57;1138750;-75
2023/09/06 13:54:51;;;;;;;3.83;3.00;;;;;;;29.58;66.35;101465.49;5011828;57;1138937;-75
2023/09/06 13:59:57;;;;;;;5.17;2.52;;;;;;;29.58;65.96;101462.23;4976233;57;1138744;-74
2023/09/06 14:05:03;;;;;;;4.08;2.67;;;;;;;29.60;61.77;101465.58;4937929;57;1138786;-76
2023/09/06 14:10:09;;;;;;;6.00;3.00;;;;;;;29.56;61.28;101462.98;4874438;58;1138752;-76
2023/09/06 14:15:15;;;;;;;9.20;2.35;;;;;;;29.59;59.11;101460.34;4972838;58;1139325;-76
2023/09/06 14:20:21;;;;;;;5.35;2.17;;;;;;;29.62;60.51;101458.02;4905236;59;1138902;-75
2023/09/06 14:25:26;;;;;;;6.58;2.77;;;;;;;29.69;61.45;101453.86;4907063;58;1138617;-74
2023/09/06 14:30:32;;;;;;;4.60;2.35;;;;;;;29.71;60.16;101453.11;4978740;57;1139176;-74
2023/09/06 14:35:43;;;;;;;2.58;2.00;;;;;;;29.84;60.71;101456.25;4892009;58;1138835;-74
2023/09/06 14:40:49;;;;;;;3.97;2.17;;;;;;;29.97;60.50;101452.91;4985630;57;1138863;-73
2023/09/06 14:46:04;;;;;;;5.72;2.35;;;;;;;30.03;61.30;101458.84;5013966;56;1138746;-74
2023/09/06 14:51:09;;;;;;;7.10;2.30;;;;;;;30.07;60.76;101457.34;4996095;56;1138688;-74
2023/09/06 14:56:15;;;;;;;5.50;1.90;;;;;;;30.04;58.64;101453.69;4996457;56;1138899;-73
2023/09/06 15:01:21;;;;;;;4.17;2.10;;;;;;;29.95;58.22;101455.52;4981881;57;1138576;-73
2023/09/06 15:06:27;;;;;;;2.87;1.77;;;;;;;29.98;59.66;101457.30;4905223;57;1138653;-75
2023/09/06 15:11:33;;;;;;;4.40;1.90;;;;;;;29.94;53.86;101455.23;4920200;57;1138904;-75
2023/09/06 15:16:39;;;;;;;7.50;2.20;;;;;;;29.80;52.58;101455.02;4976539;57;1138614;-74
2023/09/06 15:21:44;;;;;;;2.30;2.10;;;;;;;29.82;55.46;101452.91;4899432;57;1138770;-76
2023/09/06 15:26:50;;;;;;;3.08;1.82;;;;;;;29.72;52.36;101454.78;4946288;57;1139131;-74
2023/09/06 15:31:55;;;;;;;7.83;2.25;;;;;;;29.66;52.87;101450.20;4986411;57;1138738;-74
2023/09/06 15:37:01;;;;;;;3.62;2.12;;;;;;;29.79;53.03;101449.29;4979238;57;1138770;-74
2023/09/06 15:42:07;;;;;;;6.47;2.05;;;;;;;29.69;52.27;101444.31;5023345;57;1138881;-76
2023/09/06 15:47:14;;;;;;;2.97;2.30;;;;;;;29.71;52.77;101448.50;5045709;56;1139071;-75
2023/09/06 15:52:19;;;;;;;10.80;1.87;;;;;;;29.72;53.64;101445.24;4992035;56;1139113;-75
2023/09/06 15:57:25;;;;;;;15.65;2.37;;;;;;;29.75;52.58;101454.34;4970748;56;1140850;-74
2023/09/06 16:02:30;;;;;;;6.20;2.20;;;;;;;29.82;53.60;101455.64;4922700;57;1141098;-73
2023/09/06 16:07:41;;;;;;;3.25;2.95;;;;;;;29.80;53.46;101457.22;5042896;56;1138991;-74
2023/09/06 16:12:49;;;;;;;2.83;2.25;;;;;;;29.79;54.77;101458.28;4923058;57;1139152;-73
2023/09/06 16:17:57;;;;;;;4.77;2.33;;;;;;;29.70;54.37;101457.73;4860483;57;1138671;-75
2023/09/06 16:23:03;;;;;;;7.67;2.42;;;;;;;29.66;54.70;101452.94;4878856;58;1138895;-74
2023/09/06 16:28:09;;;;;;;6.42;2.55;;;;;;;29.51;54.99;101452.42;4785664;60;1138803;-74
2023/09/06 16:33:15;;;;;;;11.88;3.27;;;;;;;29.37;55.08;101456.58;4784649;60;1138947;-74
2023/09/06 16:38:21;;;;;;;10.40;3.08;;;;;;;29.24;55.30;101455.30;4838345;58;1140965;-73
2023/09/06 16:43:26;;;;;;;10.35;3.72;;;;;;;29.19;56.25;101454.28;4927178;58;1140544;-73
2023/09/06 16:48:33;;;;;;;10.28;4.47;;;;;;;29.09;56.54;101464.30;4867169;58;1140634;-73
2023/09/06 16:53:39;;;;;;;9.15;4.12;;;;;;;29.01;57.40;101455.04;4900350;58;1140968;-73
2023/09/06 16:58:44;;;;;;;10.15;5.15;;;;;;;28.96;58.39;101461.66;4933940;58;1138852;-73
2023/09/06 17:03:50;;;;;;;7.10;5.00;;;;;;;28.76;59.49;101461.70;4932880;58;1141018;-73
2023/09/06 17:08:56;;;;;;;32.40;7.50;;;;;;;28.58;61.06;101469.72;4953211;58;1139106;-73
2023/09/06 17:14:01;;;;;;;49.55;6.70;;;;;;;28.43;62.10;101478.66;4933642;58;1140912;-73
2023/09/06 17:19:07;;;;;;;22.77;5.40;;;;;;;28.32;62.56;101484.23;4938594;56;1140893;-73
2023/09/06 17:24:14;;;;;;;35.05;7.05;;;;;;;28.15;63.36;101480.25;4921893;57;1141000;-73
2023/09/06 17:29:20;;;;;;;38.80;7.95;;;;;;;28.00;64.65;101486.75;5009860;57;1141420;-73
2023/09/06 17:34:26;;;;;;;37.88;7.83;;;;;;;27.89;65.68;101490.64;4990745;57;1140986;-73
2023/09/06 17:39:32;;;;;;;28.32;7.67;;;;;;;27.76;66.66;101492.84;4943004;57;1140985;-74
2023/09/06 17:44:37;;;;;;;37.70;7.78;;;;;;;27.53;67.23;101489.10;5010271;57;1140959;-73
2023/09/06 17:49:43;;;;;;;38.83;8.20;;;;;;;27.35;68.21;101490.21;4989271;56;1140872;-73
2023/09/06 17:54:49;;;;;;;27.23;6.97;;;;;;;27.20;68.60;101489.55;4927751;57;1141147;-74
2023/09/06 17:59:56;;;;;;;18.90;4.92;;;;;;;26.93;68.76;101494.02;5014963;57;1140837;-74
2023/09/06 18:05:02;;;;;;;18.45;5.12;;;;;;;26.55;69.70;101505.33;4947473;57;1140836;-74
2023/09/06 18:10:08;;;;;;;17.80;4.47;;;;;;;26.22;71.00;101511.02;4911354;58;1140939;-74
2023/09/06 18:15:17;;;;;;;22.37;4.70;;;;;;;25.96;72.53;101505.40;4977428;58;1141047;-74
2023/09/06 18:20:22;;;;;;;25.17;4.72;;;;;;;25.88;74.05;101501.78;4954494;58;1140869;-74
2023/09/06 18:25:45;;;;;;;18.27;5.28;;;;;;;25.83;74.58;101505.58;4958246;57;1140956;-75
2023/09/06 18:30:53;;;;;;;20.33;7.40;;;;;;;25.60;74.37;101515.77;4924862;58;1140969;-74
2023/09/06 18:35:58;;;;;;;10.78;4.17;;;;;;;25.31;75.21;101515.36;4849259;59;1140634;-74
2023/09/06 18:41:08;;;;;;;16.95;4.85;;;;;;;25.23;76.57;101513.59;4838678;58;1141043;-74
2023/09/06 18:46:11;;;;;;;17.75;6.03;;;;;;;25.15;77.34;101516.42;4856586;57;1141039;-73
2023/09/06 18:51:18;;;;;;;9.90;5.60;;;;;;;25.10;77.72;101524.78;4869148;58;1141164;-74
2023/09/06 18:56:24;;;;;;;17.87;4.80;;;;;;;25.07;77.97;101517.03;4939643;57;1138844;-74
2023/09/06 19:01:29;;;;;;;10.72;4.25;;;;;;;25.00;78.00;101526.44;4914933;57;1141280;-74
2023/09/06 19:06:35;;;;;;;8.95;4.70;;;;;;;24.95;78.13;101536.14;4921991;57;1140967;-74
2023/09/06 19:11:41;;;;;;;9.83;7.50;;;;;;;24.85;78.21;101533.70;4880790;58;1138820;-75
2023/09/06 19:16:46;;;;;;;8.05;6.12;;;;;;;24.74;78.38;101532.31;4870866;57;1138889;-74
2023/09/06 19:21:52;;;;;;;13.62;5.42;;;;;;;24.62;78.76;101532.94;4965295;57;1138878;-74
2023/09/06 19:26:58;;;;;;;5.60;5.10;;;;;;;24.48;78.44;101535.97;4942121;58;1140977;-75
2023/09/06 19:32:04;;;;;;;19.02;6.78;;;;;;;24.35;78.79;101533.06;4945942;57;1139020;-75
2023/09/06 19:37:09;;;;;;;26.23;7.15;;;;;;;24.18;78.56;101525.59;4943105;57;1140914;-75
2023/09/06 19:42:16;;;;;;;25.55;7.22;;;;;;;24.03;79.19;101533.66;4943399;57;1141164;-74
2023/09/06 19:47:21;;;;;;;17.52;9.38;;;;;;;23.91;79.82;101527.02;4963254;57;1140847;-74
2023/09/06 19:52:27;;;;;;;16.95;9.20;;;;;;;23.75;79.89;101529.84;4941394;56;1140815;-74
2023/09/06 19:57:33;;;;;;;23.80;10.00;;;;;;;23.62;81.00;101528.27;4883480;58;1140809;-68
2023/09/06 20:02:40;;;;;;;16.07;8.00;;;;;;;23.59;81.62;101533.51;4860715;59;1142907;-70
2023/09/06 20:07:46;;;;;;;8.27;6.87;;;;;;;23.50;81.44;101542.16;4860872;59;1141106;-70
2023/09/06 20:12:51;;;;;;;11.38;4.83;;;;;;;23.32;81.28;101547.48;4860846;59;1138880;-70
2023/09/06 20:17:57;;;;;;;22.62;6.65;;;;;;;23.10;81.26;101545.90;4878223;59;1141159;-69
2023/09/06 20:23:02;;;;;;;19.40;5.47;;;;;;;22.92;81.60;101541.75;4876132;58;1141028;-69
2023/09/06 20:28:09;;;;;;;25.80;5.22;;;;;;;22.72;82.62;101545.35;4860389;59;1140996;-67
2023/09/06 20:33:14;;;;;;;6.00;4.15;;;;;;;22.68;83.74;101543.50;4860960;59;1140895;-70
2023/09/06 20:38:20;;;;;;;8.15;4.33;;;;;;;22.72;84.08;101548.89;4894274;58;1138967;-68
2023/09/06 20:43:28;;;;;;;5.15;3.72;;;;;;;22.71;83.98;101548.55;4943664;56;1139039;-69
2023/09/06 20:48:33;;;;;;;4.42;3.90;;;;;;;22.66;84.01;101551.42;4944154;56;1138866;-68
2023/09/06 20:53:39;;;;;;;7.42;4.78;;;;;;;22.60;84.62;101561.06;4971837;56;1138734;-70
2023/09/06 20:58:44;;;;;;;6.55;3.77;;;;;;;22.55;84.94;101559.89;4884644;58;1139223;-69
2023/09/06 21:03:50;;;;;;;6.45;3.77;;;;;;;22.46;84.29;101555.84;4880867;58;1138682;-67
2023/09/06 21:08:57;;;;;;;5.03;3.67;;;;;;;22.18;83.92;101559.92;4963236;58;1138628;-68
2023/09/06 21:14:03;;;;;;;6.00;3.37;;;;;;;22.09;85.29;101560.95;4935145;57;1138797;-70
2023/09/06 21:19:09;;;;;;;9.08;4.92;;;;;;;22.10;85.81;101572.06;4943475;58;1138871;-69
2023/09/06 21:24:15;;;;;;;26.35;13.30;;;;;;;22.10;85.81;101572.06;4945668;57;1138929;-68
2023/09/06 21:29:20;;;;;;;15.40;10.23;;;;;;;21.87;85.67;101573.19;4965350;57;1143106;-67
2023/09/06 21:34:26;;;;;;;13.38;8.88;;;;;;;21.72;85.67;101576.19;4962451;57;1142984;-68
2023/09/06 21:39:31;;;;;;;19.00;7.30;;;;;;;21.56;85.64;101571.62;4962252;57;1140747;-69
2023/09/06 21:44:39;;;;;;;14.35;6.50;;;;;;;21.45;86.12;101577.31;4982628;57;1140777;-69
2023/09/06 21:49:45;;;;;;;12.62;6.46;;;;;;;21.37;86.60;101580.00;4963078;58;1141002;-69
2023/09/06 21:54:50;;;;;;;11.10;5.80;;;;;;;21.32;86.96;101587.70;4951507;58;1140932;-69
2023/09/06 21:59:56;;;;;;;8.30;5.15;;;;;;;21.27;86.95;101586.00;4905671;57;1140875;-69
2023/09/06 22:05:01;;;;;;;9.25;5.90;;;;;;;21.20;86.86;101584.98;4962059;58;1138881;-67
2023/09/06 22:10:24;;;;;;;6.78;4.97;;;;;;;21.20;87.92;101591.70;4962390;58;1139442;-67
2023/09/06 22:15:47;;;;;;;9.35;4.67;;;;;;;21.22;88.34;101595.92;4963130;58;1138694;-70
2023/09/06 22:20:53;;;;;;;10.15;4.80;;;;;;;21.13;86.74;101609.45;4983064;58;1138974;-67
2023/09/06 22:26:00;;;;;;;11.25;5.67;;;;;;;20.71;87.10;101612.92;4965930;56;1140930;-69
2023/09/06 22:31:07;;;;;;;6.65;5.53;;;;;;;20.47;87.48;101608.73;5016678;57;1140969;-69
2023/09/06 22:36:13;;;;;;;11.20;5.43;;;;;;;20.26;87.50;101607.19;4910349;58;1138863;-70
2023/09/06 22:41:18;;;;;;;7.72;5.25;;;;;;;20.11;88.37;101607.90;4957053;58;1141137;-67
2023/09/06 22:46:25;;;;;;;8.33;4.60;;;;;;;20.11;89.39;101612.77;4865342;58;1138781;-68
2023/09/06 22:51:30;;;;;;;9.20;4.83;;;;;;;20.22;89.85;101613.02;4911678;58;1138836;-68
2023/09/06 22:56:36;;;;;;;8.85;4.40;;;;;;;20.18;88.71;101619.70;5024787;56;1138756;-69
2023/09/06 23:01:42;;;;;;;7.53;4.78;;;;;;;20.11;89.26;101624.02;4911334;58;1138910;-70
2023/09/06 23:06:48;;;;;;;9.28;4.28;;;;;;;20.15;89.70;101621.38;4911451;57;1138872;-67
2023/09/06 23:11:56;;;;;;;7.20;4.22;;;;;;;20.16;89.45;101623.06;4963075;57;1138974;-67
2023/09/06 23:17:07;;;;;;;6.95;4.80;;;;;;;20.12;89.32;101622.52;4911635;59;1138818;-66
2023/09/06 23:22:12;;;;;;;12.98;4.65;;;;;;;20.02;89.03;101622.58;4943724;57;1138901;-69